createdAt,value
2022-12-23T00:01:42.207Z,99046.28
2022-12-23T00:04:10.796Z,99051.41
2022-12-23T00:06:39.211Z,99039.47
2022-12-23T00:09:07.792Z,99043.75
2022-12-23T00:11:57.469Z,99048.84
2022-12-23T00:14:43.470Z,99045.47
2022-12-23T00:17:28.341Z,99039.44
2022-12-23T00:19:57.102Z,99042.84
2022-12-23T00:22:46.165Z,99043.69
2022-12-23T00:25:15.097Z,99053.09
2022-12-23T00:28:01.383Z,99041.13
2022-12-23T00:30:30.247Z,99051.34
2022-12-23T00:32:58.702Z,99051.41
2022-12-23T00:35:27.088Z,99056.53
2022-12-23T00:37:55.432Z,99057.34
2022-12-23T00:40:41.312Z,99060.78
2022-12-23T00:43:11.098Z,99060.78
2022-12-23T00:45:39.564Z,99064.19
2022-12-23T00:48:25.586Z,99060.78
2022-12-23T00:50:54.511Z,99061.66
2022-12-23T00:53:23.304Z,99065.03
2022-12-23T00:55:52.087Z,99070.16
2022-12-23T00:58:23.101Z,99070.16
2022-12-23T01:01:08.842Z,99080.38
2022-12-23T01:03:54.902Z,99076.13
2022-12-23T01:06:23.390Z,99075.31
2022-12-23T01:08:51.750Z,99075.31
2022-12-23T01:11:20.626Z,99077.88
2022-12-23T01:13:50.542Z,99079.56
2022-12-23T01:16:19.009Z,99077.88
2022-12-23T01:18:47.525Z,99087.25
2022-12-23T01:21:15.925Z,99079.59
2022-12-23T01:23:44.391Z,99081.28
2022-12-23T01:26:13.465Z,99087.28
2022-12-23T01:28:41.831Z,99087.28
2022-12-23T01:31:12.836Z,99083.84
2022-12-23T01:33:41.316Z,99100.91
2022-12-23T01:36:11.580Z,99086.41
2022-12-23T01:38:40.261Z,99093.25
2022-12-23T01:41:08.753Z,99092.41
2022-12-23T01:43:48.227Z,99084.75
2022-12-23T01:46:18.086Z,99082.19
2022-12-23T01:48:51.901Z,99083.03
2022-12-23T01:51:25.485Z,99083.03
2022-12-23T01:54:01.220Z,99081.28
2022-12-23T01:56:34.360Z,99090.69
2022-12-23T01:59:09.397Z,99092.38
2022-12-23T02:01:56.980Z,99094.91
2022-12-23T02:04:27.008Z,99091.50
2022-12-23T02:07:12.533Z,99093.19
2022-12-23T02:09:41.898Z,99092.34
2022-12-23T02:12:41.584Z,99094.88
2022-12-23T02:15:53.003Z,99103.38
2022-12-23T02:19:09.586Z,99105.06
2022-12-23T02:22:02.555Z,99111.03
2022-12-23T02:25:28.412Z,99103.34
2022-12-23T02:28:18.602Z,99104.22
2022-12-23T02:30:56.321Z,99109.31
2022-12-23T02:33:50.184Z,99113.59
2022-12-23T02:36:39.513Z,99123.81
2022-12-23T02:39:16.313Z,99122.94
2022-12-23T02:41:55.681Z,99126.34
2022-12-23T02:44:31.342Z,99123.78
2022-12-23T02:47:06.661Z,99123.78
2022-12-23T02:49:39.845Z,99125.47
2022-12-23T02:52:15.464Z,99129.72
2022-12-23T02:54:47.305Z,99134.81
2022-12-23T02:57:19.426Z,99143.34
2022-12-23T02:59:52.351Z,99136.53
2022-12-23T03:02:22.596Z,99136.53
2022-12-23T03:04:51.075Z,99141.63
2022-12-23T03:07:25.561Z,99136.53
2022-12-23T03:10:04.867Z,99138.22
2022-12-23T03:12:52.453Z,99144.13
2022-12-23T03:15:33.396Z,99140.72
2022-12-23T03:18:12.831Z,99133.88
2022-12-23T03:20:50.977Z,99132.16
2022-12-23T03:23:27.575Z,99141.56
2022-12-23T03:26:03.747Z,99137.31
2022-12-23T03:28:41.120Z,99138.13
2022-12-23T03:31:14.282Z,99144.97
2022-12-23T03:33:49.340Z,99147.47
2022-12-23T03:36:24.346Z,99138.97
2022-12-23T03:38:56.085Z,99144.88
2022-12-23T03:41:32.503Z,99150.00
2022-12-23T03:44:06.638Z,99150.00
2022-12-23T03:46:40.926Z,99150.78
2022-12-23T03:49:15.680Z,99151.66
2022-12-23T03:51:52.367Z,99149.06
2022-12-23T03:54:28.668Z,99153.31
2022-12-23T03:57:03.514Z,99154.19
2022-12-23T03:59:35.859Z,99149.91
2022-12-23T04:02:10.527Z,99159.28
2022-12-23T04:04:58.770Z,99150.78
2022-12-23T04:07:32.625Z,99147.38
2022-12-23T04:10:01.883Z,99149.94
2022-12-23T04:12:31.676Z,99159.34
2022-12-23T04:15:00.376Z,99151.66
2022-12-23T04:17:30.055Z,99154.19
2022-12-23T04:19:59.884Z,99151.66
2022-12-23T04:22:28.283Z,99150.78
2022-12-23T04:24:56.764Z,99149.09
2022-12-23T04:27:25.093Z,99153.34
2022-12-23T04:29:53.508Z,99154.22
2022-12-23T04:32:21.890Z,99162.72
2022-12-23T04:34:50.251Z,99167.00
2022-12-23T04:37:20.065Z,99154.22
2022-12-23T04:39:48.449Z,99174.72
2022-12-23T04:42:16.866Z,99169.59
2022-12-23T04:44:45.286Z,99159.41
2022-12-23T04:47:13.709Z,99163.66
2022-12-23T04:49:42.195Z,99160.28
2022-12-23T04:52:10.900Z,99164.59
2022-12-23T04:54:45.918Z,99162.03
2022-12-23T04:57:16.120Z,99157.81
2022-12-23T04:59:44.619Z,99158.66
2022-12-23T05:02:13.298Z,99170.63
2022-12-23T05:04:42.258Z,99171.47
2022-12-23T05:07:10.677Z,99171.47
2022-12-23T05:09:40.429Z,99175.75
2022-12-23T05:12:08.826Z,99185.16
2022-12-23T05:14:37.205Z,99181.72
2022-12-23T05:17:08.031Z,99186.88
2022-12-23T05:19:36.598Z,99180.03
2022-12-23T05:22:04.977Z,99192.81
2022-12-23T05:24:33.390Z,99188.59
2022-12-23T05:27:03.302Z,99192.00
2022-12-23T05:29:31.729Z,99192.00
2022-12-23T05:32:00.264Z,99197.13
2022-12-23T05:34:28.783Z,99189.44
2022-12-23T05:36:57.244Z,99191.13
2022-12-23T05:39:25.655Z,99191.13
2022-12-23T05:41:53.990Z,99197.97
2022-12-23T05:44:23.840Z,99197.97
2022-12-23T05:46:52.277Z,99191.19
2022-12-23T05:49:20.874Z,99203.09
2022-12-23T05:51:49.284Z,99204.78
2022-12-23T05:54:17.829Z,99210.78
2022-12-23T05:56:46.197Z,99210.81
2022-12-23T05:59:14.686Z,99208.25
2022-12-23T06:01:44.628Z,99214.22
2022-12-23T06:04:13.210Z,99221.03
2022-12-23T06:06:41.592Z,99217.63
2022-12-23T06:09:11.448Z,99222.78
2022-12-23T06:11:39.825Z,99216.81
2022-12-23T06:14:08.404Z,99210.84
2022-12-23T06:16:37.001Z,99220.25
2022-12-23T06:19:07.038Z,99219.44
2022-12-23T06:21:35.494Z,99221.16
2022-12-23T06:24:04.892Z,99227.94
2022-12-23T06:26:33.952Z,99234.78
2022-12-23T06:29:02.582Z,99228.81
2022-12-23T06:31:31.030Z,99239.88
2022-12-23T06:33:59.443Z,99238.16
2022-12-23T06:36:29.295Z,99239.88
2022-12-23T06:38:57.623Z,99238.19
2022-12-23T06:41:25.987Z,99234.78
2022-12-23T06:43:54.764Z,99243.25
2022-12-23T06:46:23.350Z,99244.13
2022-12-23T06:48:51.938Z,99244.13
2022-12-23T06:51:20.506Z,99246.72
2022-12-23T06:53:50.309Z,99257.78
2022-12-23T06:56:18.971Z,99255.22
2022-12-23T06:58:47.510Z,99262.88
2022-12-23T07:01:15.985Z,99257.78
2022-12-23T07:03:44.463Z,99257.78
2022-12-23T07:06:13.097Z,99256.91
2022-12-23T07:08:41.501Z,99265.41
2022-12-23T07:11:11.246Z,99269.69
2022-12-23T07:13:39.884Z,99270.50
2022-12-23T07:16:10.540Z,99264.56
2022-12-23T07:18:39.004Z,99267.09
2022-12-23T07:21:14.028Z,99272.19
2022-12-23T07:23:48.575Z,99276.41
2022-12-23T07:26:18.673Z,99265.34
2022-12-23T07:28:48.490Z,99267.00
2022-12-23T07:31:17.197Z,99262.75
2022-12-23T07:33:45.845Z,99261.91
2022-12-23T07:36:15.721Z,99262.75
2022-12-23T07:38:44.371Z,99258.50
2022-12-23T07:41:12.802Z,99269.56
2022-12-23T07:43:42.665Z,99258.47
2022-12-23T07:46:11.781Z,99254.22
2022-12-23T07:48:41.974Z,99255.06
2022-12-23T07:51:11.416Z,99249.94
2022-12-23T07:53:39.863Z,99254.22
2022-12-23T07:56:09.302Z,99249.94
2022-12-23T07:58:37.874Z,99260.19
2022-12-23T08:01:09.222Z,99261.00
2022-12-23T08:03:38.821Z,99280.59
2022-12-23T08:06:12.699Z,99277.22
2022-12-23T08:08:42.983Z,99279.78
2022-12-23T08:11:13.408Z,99275.50
2022-12-23T08:13:44.821Z,99268.69
2022-12-23T08:16:14.766Z,99268.69
2022-12-23T08:18:43.751Z,99275.50
2022-12-23T08:21:17.986Z,99282.34
2022-12-23T08:23:47.222Z,99268.69
2022-12-23T08:26:18.072Z,99274.63
2022-12-23T08:28:47.338Z,99275.47
2022-12-23T08:31:20.905Z,99275.47
2022-12-23T08:33:52.599Z,99266.91
2022-12-23T08:36:25.040Z,99266.06
2022-12-23T08:38:56.098Z,99265.16
2022-12-23T08:41:29.016Z,99263.47
2022-12-23T08:43:58.308Z,99258.31
2022-12-23T08:46:28.837Z,99258.25
2022-12-23T08:48:57.405Z,99258.25
2022-12-23T08:51:28.045Z,99254.78
2022-12-23T08:54:00.999Z,99253.88
2022-12-23T08:56:32.761Z,99241.03
2022-12-23T08:59:01.928Z,99238.44
2022-12-23T09:01:36.156Z,99233.28
2022-12-23T09:04:05.928Z,99233.25
2022-12-23T09:06:37.553Z,99231.53
2022-12-23T09:09:06.988Z,99231.50
2022-12-23T09:11:36.176Z,99235.72
2022-12-23T09:14:05.864Z,99233.16
2022-12-23T09:16:35.798Z,99221.22
2022-12-23T09:19:04.933Z,99221.25
2022-12-23T09:21:33.566Z,99217.81
2022-12-23T09:24:02.118Z,99221.25
2022-12-23T09:26:32.695Z,99219.53
2022-12-23T09:29:01.492Z,99216.13
2022-12-23T09:31:36.163Z,99199.06
2022-12-23T09:34:07.608Z,99208.47
2022-12-23T09:36:36.080Z,99200.81
2022-12-23T09:39:04.873Z,99194.00
2022-12-23T09:41:54.682Z,99191.44
2022-12-23T09:44:41.728Z,99190.56
2022-12-23T09:47:15.664Z,99190.56
2022-12-23T09:49:49.894Z,99188.84
2022-12-23T09:52:26.688Z,99188.00
2022-12-23T09:54:56.671Z,99182.88
2022-12-23T09:57:36.523Z,99171.84
2022-12-23T10:00:12.641Z,99176.97
2022-12-23T10:02:57.091Z,99176.09
2022-12-23T10:05:36.983Z,99173.59
2022-12-23T10:08:13.830Z,99171.88
2022-12-23T10:10:48.513Z,99183.84
2022-12-23T10:13:26.927Z,99172.78
2022-12-23T10:15:59.943Z,99171.94
2022-12-23T10:18:42.516Z,99171.97
2022-12-23T10:21:19.339Z,99160.03
2022-12-23T10:23:53.416Z,99171.13
2022-12-23T10:26:32.806Z,99171.13
2022-12-23T10:29:18.363Z,99166.03
2022-12-23T10:32:01.603Z,99169.41
2022-12-23T10:34:44.825Z,99154.97
2022-12-23T10:37:26.773Z,99160.94
2022-12-23T10:40:15.705Z,99149.03
2022-12-23T10:42:56.451Z,99143.00
2022-12-23T10:45:42.265Z,99143.00
2022-12-23T10:48:28.992Z,99150.72
2022-12-23T10:51:02.550Z,99146.47
2022-12-23T10:53:38.657Z,99149.84
2022-12-23T10:56:08.543Z,99157.50
2022-12-23T10:58:43.413Z,99145.63
2022-12-23T11:01:24.038Z,99143.06
2022-12-23T11:04:02.928Z,99133.72
2022-12-23T11:06:37.525Z,99129.44
2022-12-23T11:09:13.624Z,99131.19
2022-12-23T11:11:59.443Z,99130.38
2022-12-23T11:14:34.823Z,99114.16
2022-12-23T11:17:03.494Z,99123.53
2022-12-23T11:19:32.334Z,99111.63
2022-12-23T11:22:02.464Z,99106.50
2022-12-23T11:24:39.667Z,99098.84
2022-12-23T11:27:17.176Z,99098.84
2022-12-23T11:29:49.317Z,99085.19
2022-12-23T11:32:21.723Z,99090.25
2022-12-23T11:34:51.245Z,99075.72
2022-12-23T11:37:33.414Z,99083.41
2022-12-23T11:40:04.947Z,99082.56
2022-12-23T11:42:35.866Z,99075.75
2022-12-23T11:45:09.914Z,99076.63
2022-12-23T11:47:41.078Z,99083.47
2022-12-23T11:50:32.450Z,99082.59
2022-12-23T11:53:15.330Z,99080.91
2022-12-23T11:56:01.521Z,99078.38
2022-12-23T11:58:32.064Z,99075.00
2022-12-23T12:01:08.091Z,99068.19
2022-12-23T12:03:47.330Z,99064.75
2022-12-23T12:06:17.682Z,99065.66
2022-12-23T12:08:52.233Z,99053.75
2022-12-23T12:11:27.748Z,99058.84
2022-12-23T12:14:00.791Z,99057.13
2022-12-23T12:16:51.853Z,99059.69
2022-12-23T12:19:26.813Z,99051.19
2022-12-23T12:22:00.553Z,99058.81
2022-12-23T12:24:34.416Z,99051.19
2022-12-23T12:27:08.680Z,99062.25
2022-12-23T12:29:42.915Z,99042.66
2022-12-23T12:32:22.421Z,99052.03
2022-12-23T12:34:58.196Z,99048.63
2022-12-23T12:37:37.093Z,99048.59
2022-12-23T12:40:19.553Z,99046.88
2022-12-23T12:42:58.026Z,99056.28
2022-12-23T12:45:34.914Z,99051.16
2022-12-23T12:48:32.870Z,99049.50
2022-12-23T12:51:12.356Z,99044.41
2022-12-23T12:54:06.008Z,99051.25
2022-12-23T12:56:42.639Z,99044.38
2022-12-23T12:59:18.546Z,99048.63
2022-12-23T13:02:23.928Z,99038.44
2022-12-23T13:05:37.064Z,99045.25
2022-12-23T13:08:24.708Z,99064.03
2022-12-23T13:10:58.434Z,99052.13
2022-12-23T13:13:40.415Z,99053.00
2022-12-23T13:16:24.581Z,99052.16
2022-12-23T13:18:59.558Z,99047.06
2022-12-23T13:21:38.515Z,99048.78
2022-12-23T13:24:22.633Z,99049.63
2022-12-23T13:27:05.952Z,99041.09
2022-12-23T13:30:04.791Z,99052.16
2022-12-23T13:33:08.065Z,99044.47
2022-12-23T13:36:05.037Z,99042.72
2022-12-23T13:39:09.251Z,99035.03
2022-12-23T13:41:42.242Z,99044.41
2022-12-23T13:44:13.659Z,99048.69
2022-12-23T13:46:53.429Z,99040.13
2022-12-23T13:49:39.424Z,99045.22
2022-12-23T13:52:13.164Z,99044.31
2022-12-23T13:54:56.030Z,99036.66
2022-12-23T13:57:44.678Z,99034.06
2022-12-23T14:00:28.614Z,99034.88
2022-12-23T14:03:20.256Z,99030.56
2022-12-23T14:05:51.566Z,99027.97
2022-12-23T14:08:33.834Z,99029.66
2022-12-23T14:11:12.111Z,99027.97
2022-12-23T14:13:44.801Z,99029.63
2022-12-23T14:16:46.697Z,99027.03
2022-12-23T14:19:37.114Z,99032.94
2022-12-23T14:22:36.451Z,99044.03
2022-12-23T14:25:56.369Z,99038.03
2022-12-23T14:28:48.960Z,99026.94
2022-12-23T14:31:39.871Z,99033.69
2022-12-23T14:34:31.454Z,99042.25
2022-12-23T14:37:37.043Z,99034.56
2022-12-23T14:40:56.755Z,99043.97
2022-12-23T14:43:32.560Z,99041.41
2022-12-23T14:46:04.893Z,99044.81
2022-12-23T14:49:38.763Z,99046.53
2022-12-23T14:53:04.329Z,99059.31
2022-12-23T14:55:53.595Z,99056.75
2022-12-23T14:59:09.733Z,99053.34
2022-12-23T15:01:41.968Z,99056.75
2022-12-23T15:04:19.530Z,99052.53
2022-12-23T15:06:53.164Z,99064.44
2022-12-23T15:09:31.505Z,99055.09
2022-12-23T15:12:06.122Z,99061.84
2022-12-23T15:14:40.848Z,99063.56
2022-12-23T15:17:27.034Z,99060.97
2022-12-23T15:20:05.503Z,99059.22
2022-12-23T15:22:34.515Z,99066.91
2022-12-23T15:25:04.793Z,99064.34
2022-12-23T15:27:37.924Z,99066.00
2022-12-23T15:30:11.758Z,99064.25
2022-12-23T15:32:42.335Z,99059.09
2022-12-23T15:35:18.789Z,99063.34
2022-12-23T15:37:50.600Z,99077.84
2022-12-23T15:40:29.957Z,99059.91
2022-12-23T15:42:59.135Z,99057.34
2022-12-23T15:45:39.281Z,99053.03
2022-12-23T15:48:25.240Z,99060.72
2022-12-23T15:50:59.499Z,99059.00
2022-12-23T15:53:33.967Z,99053.88
2022-12-23T15:56:10.550Z,99056.44
2022-12-23T15:58:43.435Z,99053.84
2022-12-23T16:01:17.231Z,99057.25
2022-12-23T16:03:53.242Z,99057.25
2022-12-23T16:06:25.327Z,99053.81
2022-12-23T16:09:03.919Z,99057.19
2022-12-23T16:11:54.025Z,99060.59
2022-12-23T16:14:37.685Z,99058.00
2022-12-23T16:17:22.473Z,99067.38
2022-12-23T16:19:53.645Z,99059.69
2022-12-23T16:22:30.198Z,99055.41
2022-12-23T16:25:17.225Z,99063.94
2022-12-23T16:27:51.218Z,99061.38
2022-12-23T16:30:22.790Z,99055.38
2022-12-23T16:32:55.282Z,99057.97
2022-12-23T16:35:36.292Z,99058.78
2022-12-23T16:38:16.546Z,99051.09
2022-12-23T16:40:47.405Z,99053.63
2022-12-23T16:43:18.142Z,99052.78
2022-12-23T16:45:50.768Z,99056.16
2022-12-23T16:48:27.272Z,99054.47
2022-12-23T16:50:56.272Z,99061.28
2022-12-23T16:53:24.671Z,99062.13
2022-12-23T16:55:58.504Z,99060.41
2022-12-23T16:58:30.527Z,99068.09
2022-12-23T17:00:59.193Z,99068.09
2022-12-23T17:03:27.635Z,99066.38
2022-12-23T17:05:57.449Z,99061.28
2022-12-23T17:08:25.860Z,99070.63
2022-12-23T17:10:54.373Z,99074.91
2022-12-23T17:13:22.762Z,99081.72
2022-12-23T17:15:52.785Z,99080.88
2022-12-23T17:18:21.279Z,99079.97
2022-12-23T17:20:50.936Z,99067.19
2022-12-23T17:23:28.280Z,99078.25
2022-12-23T17:25:57.133Z,99084.22
2022-12-23T17:28:29.397Z,99087.63
2022-12-23T17:31:00.253Z,99079.09
2022-12-23T17:33:31.426Z,99082.50
2022-12-23T17:35:59.976Z,99077.38
2022-12-23T17:38:29.167Z,99076.50
2022-12-23T17:40:59.455Z,99081.59
2022-12-23T17:43:28.497Z,99079.00
2022-12-23T17:45:58.629Z,99084.97
2022-12-23T17:48:31.728Z,99077.28
2022-12-23T17:51:00.659Z,99091.81
2022-12-23T17:53:29.022Z,99089.25
2022-12-23T17:55:57.551Z,99084.97
2022-12-23T17:58:25.926Z,99085.84
2022-12-23T18:00:54.485Z,99088.38
2022-12-23T18:03:25.195Z,99095.22
2022-12-23T18:06:01.262Z,99102.91
2022-12-23T18:08:30.456Z,99098.63
2022-12-23T18:11:00.587Z,99098.63
2022-12-23T18:13:29.090Z,99108.88
2022-12-23T18:15:57.769Z,99111.44
2022-12-23T18:18:36.817Z,99117.38
2022-12-23T18:21:12.002Z,99116.59
2022-12-23T18:23:40.417Z,99119.13
2022-12-23T18:26:11.658Z,99125.16
2022-12-23T18:28:40.257Z,99123.47
2022-12-23T18:31:15.241Z,99131.19
2022-12-23T18:33:45.312Z,99134.69
2022-12-23T18:36:24.431Z,99130.47
2022-12-23T18:38:54.167Z,99148.41
2022-12-23T18:41:23.541Z,99139.94
2022-12-23T18:43:52.808Z,99145.09
2022-12-23T18:46:21.773Z,99146.81
2022-12-23T18:48:51.747Z,99146.84
2022-12-23T18:51:22.805Z,99158.81
2022-12-23T18:53:51.425Z,99153.72
2022-12-23T18:56:21.432Z,99158.03
2022-12-23T18:58:51.294Z,99166.56
2022-12-23T19:01:20.440Z,99156.34
2022-12-23T19:03:50.490Z,99163.19
2022-12-23T19:06:18.898Z,99166.66
2022-12-23T19:08:47.417Z,99170.88
2022-12-23T19:11:18.539Z,99169.22
2022-12-23T19:13:47.224Z,99168.34
2022-12-23T19:16:18.358Z,99173.50
2022-12-23T19:18:48.560Z,99180.31
2022-12-23T19:21:19.851Z,99179.47
2022-12-23T19:23:48.251Z,99181.19
2022-12-23T19:26:17.477Z,99176.91
2022-12-23T19:28:55.632Z,99181.22
2022-12-23T19:31:25.479Z,99188.06
2022-12-23T19:34:00.722Z,99190.69
2022-12-23T19:36:40.302Z,99197.53
2022-12-23T19:39:12.517Z,99201.78
2022-12-23T19:41:41.380Z,99210.34
2022-12-23T19:44:14.853Z,99214.63
2022-12-23T19:46:52.372Z,99211.22
2022-12-23T19:49:21.227Z,99210.38
2022-12-23T19:51:51.874Z,99211.25
2022-12-23T19:54:21.813Z,99211.28
2022-12-23T19:56:53.132Z,99202.75
2022-12-23T19:59:22.943Z,99211.25
2022-12-23T20:01:54.595Z,99216.38
2022-12-23T20:04:25.276Z,99213.00
2022-12-23T20:06:55.575Z,99230.91
2022-12-23T20:09:32.661Z,99230.06
2022-12-23T20:12:08.306Z,99226.66
2022-12-23T20:14:37.437Z,99227.50
2022-12-23T20:17:06.532Z,99222.38
2022-12-23T20:19:45.599Z,99230.03
2022-12-23T20:22:16.493Z,99237.69
2022-12-23T20:24:45.620Z,99244.53
2022-12-23T20:27:19.124Z,99238.59
2022-12-23T20:29:51.878Z,99240.31
2022-12-23T20:32:20.669Z,99247.13
2022-12-23T20:34:50.873Z,99243.72
2022-12-23T20:37:21.113Z,99244.63
2022-12-23T20:39:54.556Z,99248.03
2022-12-23T20:42:23.570Z,99248.03
2022-12-23T20:44:52.657Z,99253.19
2022-12-23T20:47:21.512Z,99248.09
2022-12-23T20:50:02.688Z,99242.97
2022-12-23T20:52:33.568Z,99237.88
2022-12-23T20:55:04.414Z,99231.91
2022-12-23T20:57:36.501Z,99237.88
2022-12-23T21:00:06.504Z,99237.03
2022-12-23T21:02:35.118Z,99229.34
2022-12-23T21:05:07.005Z,99224.25
2022-12-23T21:07:39.892Z,99233.66
2022-12-23T21:10:18.174Z,99225.97
2022-12-23T21:12:48.748Z,99220.84
2022-12-23T21:15:19.871Z,99235.34
2022-12-23T21:17:48.591Z,99240.44
2022-12-23T21:20:19.312Z,99237.88
2022-12-23T21:22:51.399Z,99243.00
2022-12-23T21:25:19.845Z,99243.00
2022-12-23T21:27:49.254Z,99240.47
2022-12-23T21:30:19.268Z,99236.19
2022-12-23T21:32:50.064Z,99239.63
2022-12-23T21:35:19.110Z,99234.53
2022-12-23T21:37:49.264Z,99242.22
2022-12-23T21:40:18.260Z,99243.03
2022-12-23T21:42:47.137Z,99243.91
2022-12-23T21:45:18.148Z,99243.06
2022-12-23T21:47:49.242Z,99248.16
2022-12-23T21:50:17.924Z,99241.34
2022-12-23T21:52:46.579Z,99235.38
2022-12-23T21:55:18.313Z,99235.41
2022-12-23T21:57:46.925Z,99239.66
2022-12-23T22:00:16.467Z,99249.88
2022-12-23T22:02:46.313Z,99261.81
2022-12-23T22:05:17.925Z,99274.59
2022-12-23T22:07:46.547Z,99263.53
2022-12-23T22:10:16.620Z,99268.63
2022-12-23T22:12:46.126Z,99261.81
2022-12-23T22:15:14.801Z,99255.84
2022-12-23T22:17:44.214Z,99261.00
2022-12-23T22:20:14.409Z,99261.84
2022-12-23T22:22:43.483Z,99259.28
2022-12-23T22:25:12.183Z,99260.16
2022-12-23T22:27:42.524Z,99259.28
2022-12-23T22:30:12.034Z,99255.00
2022-12-23T22:32:42.599Z,99260.09
2022-12-23T22:35:11.501Z,99259.25
2022-12-23T22:37:39.897Z,99259.25
2022-12-23T22:40:10.343Z,99262.66
2022-12-23T22:42:38.840Z,99263.50
2022-12-23T22:45:13.332Z,99261.81
2022-12-23T22:47:42.401Z,99268.66
2022-12-23T22:50:11.684Z,99257.59
2022-12-23T22:52:40.329Z,99257.59
2022-12-23T22:55:10.155Z,99259.31
2022-12-23T22:57:38.591Z,99261.00
2022-12-23T23:00:12.525Z,99267.00
2022-12-23T23:02:41.582Z,99268.69
2022-12-23T23:05:13.022Z,99270.41
2022-12-23T23:07:41.881Z,99265.28
2022-12-23T23:10:11.822Z,99262.72
2022-12-23T23:12:40.224Z,99267.84
2022-12-23T23:15:12.266Z,99258.44
2022-12-23T23:17:40.612Z,99261.88
2022-12-23T23:20:11.000Z,99267.81
2022-12-23T23:22:39.432Z,99274.66
2022-12-23T23:25:09.031Z,99272.94
2022-12-23T23:27:37.386Z,99263.56
2022-12-23T23:30:06.916Z,99261.84
2022-12-23T23:32:36.646Z,99255.06
2022-12-23T23:35:10.694Z,99258.44
2022-12-23T23:37:39.512Z,99257.59
2022-12-23T23:40:09.963Z,99261.84
2022-12-23T23:42:38.371Z,99264.41
2022-12-23T23:45:08.839Z,99259.25
2022-12-23T23:47:38.571Z,99257.53
2022-12-23T23:50:09.506Z,99261.81
2022-12-23T23:52:37.953Z,99258.38
2022-12-23T23:55:07.854Z,99261.81
2022-12-23T23:57:36.240Z,99267.78
